sensor_id;sensor_type;location;lat;lon;timestamp;P1;durP1;ratioP1;P2;durP2;ratioP2
28216;SDS011;15493;56.858;24.340;2023-07-29T06:58:56;15.88;;;7.85;;
28216;SDS011;15493;56.858;24.340;2023-07-29T07:01:23;10.13;;;8.18;;
28216;SDS011;15493;56.858;24.340;2023-07-29T07:03:51;9.35;;;8.25;;
28216;SDS011;15493;56.858;24.340;2023-07-29T07:06:21;12.18;;;9.07;;
28216;SDS011;15493;56.858;24.340;2023-07-29T07:08:51;18.23;;;8.60;;
28216;SDS011;15493;56.858;24.340;2023-07-29T07:11:18;11.23;;;8.02;;
28216;SDS011;15493;56.858;24.340;2023-07-29T07:13:45;9.02;;;7.93;;
28216;SDS011;15493;56.858;24.340;2023-07-29T07:16:12;8.35;;;7.55;;
28216;SDS011;15493;56.858;24.340;2023-07-29T07:18:39;8.65;;;6.90;;
28216;SDS011;15493;56.858;24.340;2023-07-29T07:21:07;8.70;;;6.70;;
28216;SDS011;15493;56.858;24.340;2023-07-29T07:23:34;9.57;;;6.53;;
28216;SDS011;15493;56.858;24.340;2023-07-29T07:26:01;10.35;;;8.20;;
28216;SDS011;15493;56.858;24.340;2023-07-29T07:28:29;10.65;;;7.85;;
28216;SDS011;15493;56.858;24.340;2023-07-29T07:30:56;10.20;;;6.38;;
28216;SDS011;15493;56.858;24.340;2023-07-29T07:33:23;8.27;;;7.35;;
28216;SDS011;15493;56.858;24.340;2023-07-29T07:35:50;10.15;;;6.93;;
28216;SDS011;15493;56.858;24.340;2023-07-29T07:38:17;6.57;;;5.75;;
28216;SDS011;15493;56.858;24.340;2023-07-29T07:40:52;10.82;;;7.15;;
28216;SDS011;15493;56.858;24.340;2023-07-29T07:43:21;11.60;;;6.72;;
28216;SDS011;15493;56.858;24.340;2023-07-29T07:45:48;8.38;;;6.68;;
28216;SDS011;15493;56.858;24.340;2023-07-29T07:48:15;7.28;;;6.20;;
28216;SDS011;15493;56.858;24.340;2023-07-29T07:50:43;6.90;;;5.63;;
28216;SDS011;15493;56.858;24.340;2023-07-29T07:55:39;7.05;;;5.82;;
28216;SDS011;15493;56.858;24.340;2023-07-29T07:58:06;7.50;;;6.30;;
28216;SDS011;15493;56.858;24.340;2023-07-29T08:00:33;5.60;;;5.10;;
28216;SDS011;15493;56.858;24.340;2023-07-29T08:03:00;6.13;;;5.28;;
28216;SDS011;15493;56.858;24.340;2023-07-29T08:05:27;7.78;;;5.32;;
28216;SDS011;15493;56.858;24.340;2023-07-29T08:07:54;6.22;;;4.38;;
28216;SDS011;15493;56.858;24.340;2023-07-29T08:10:22;6.68;;;5.85;;
28216;SDS011;15493;56.858;24.340;2023-07-29T08:12:49;7.90;;;4.95;;
28216;SDS011;15493;56.858;24.340;2023-07-29T08:15:16;7.75;;;5.88;;
28216;SDS011;15493;56.858;24.340;2023-07-29T08:17:43;10.15;;;6.95;;
28216;SDS011;15493;56.858;24.340;2023-07-29T08:20:12;8.75;;;5.55;;
28216;SDS011;15493;56.858;24.340;2023-07-29T08:22:39;12.15;;;5.55;;
28216;SDS011;15493;56.858;24.340;2023-07-29T08:25:07;10.02;;;5.78;;
28216;SDS011;15493;56.858;24.340;2023-07-29T08:27:34;7.78;;;6.63;;
28216;SDS011;15493;56.858;24.340;2023-07-29T08:30:01;11.88;;;6.97;;
28216;SDS011;15493;56.858;24.340;2023-07-29T08:32:28;7.40;;;5.65;;
28216;SDS011;15493;56.858;24.340;2023-07-29T08:34:56;7.65;;;5.22;;
28216;SDS011;15493;56.858;24.340;2023-07-29T08:37:23;7.80;;;4.40;;
28216;SDS011;15493;56.858;24.340;2023-07-29T08:44:47;5.50;;;4.20;;
28216;SDS011;15493;56.858;24.340;2023-07-29T08:54:37;9.13;;;5.07;;
28216;SDS011;15493;56.858;24.340;2023-07-29T08:57:04;5.13;;;4.65;;
28216;SDS011;15493;56.858;24.340;2023-07-29T08:59:33;4.32;;;3.90;;
28216;SDS011;15493;56.858;24.340;2023-07-29T09:02:00;11.10;;;4.22;;
28216;SDS011;15493;56.858;24.340;2023-07-29T09:04:28;4.97;;;3.78;;
28216;SDS011;15493;56.858;24.340;2023-07-29T09:06:55;9.07;;;3.95;;
28216;SDS011;15493;56.858;24.340;2023-07-29T09:09:24;4.15;;;3.58;;
28216;SDS011;15493;56.858;24.340;2023-07-29T09:11:52;5.55;;;4.25;;
28216;SDS011;15493;56.858;24.340;2023-07-29T09:14:19;4.82;;;4.15;;
28216;SDS011;15493;56.858;24.340;2023-07-29T09:16:46;4.82;;;4.43;;
28216;SDS011;15493;56.858;24.340;2023-07-29T09:19:14;4.15;;;3.75;;
28216;SDS011;15493;56.858;24.340;2023-07-29T09:21:41;3.42;;;2.97;;
28216;SDS011;15493;56.858;24.340;2023-07-29T09:24:09;3.28;;;3.08;;
28216;SDS011;15493;56.858;24.340;2023-07-29T09:26:36;5.05;;;3.72;;
28216;SDS011;15493;56.858;24.340;2023-07-29T09:29:03;3.17;;;2.88;;
28216;SDS011;15493;56.858;24.340;2023-07-29T09:31:31;3.20;;;2.95;;
28216;SDS011;15493;56.858;24.340;2023-07-29T09:33:58;4.68;;;3.83;;
28216;SDS011;15493;56.858;24.340;2023-07-29T09:36:26;3.53;;;2.67;;
28216;SDS011;15493;56.858;24.340;2023-07-29T09:38:54;3.50;;;3.15;;
28216;SDS011;15493;56.858;24.340;2023-07-29T09:41:22;2.72;;;2.53;;
28216;SDS011;15493;56.858;24.340;2023-07-29T09:43:54;5.10;;;3.22;;
28216;SDS011;15493;56.858;24.340;2023-07-29T09:46:23;3.33;;;3.00;;
28216;SDS011;15493;56.858;24.340;2023-07-29T09:48:52;3.35;;;3.05;;
28216;SDS011;15493;56.858;24.340;2023-07-29T09:51:21;4.45;;;2.85;;
28216;SDS011;15493;56.858;24.340;2023-07-29T09:53:49;2.33;;;2.10;;
28216;SDS011;15493;56.858;24.340;2023-07-29T09:56:17;2.85;;;2.15;;
28216;SDS011;15493;56.858;24.340;2023-07-29T09:58:44;3.25;;;2.42;;
28216;SDS011;15493;56.858;24.340;2023-07-29T10:01:12;2.20;;;2.00;;
28216;SDS011;15493;56.858;24.340;2023-07-29T10:03:40;3.10;;;2.22;;
28216;SDS011;15493;56.858;24.340;2023-07-29T10:06:07;2.97;;;2.35;;
28216;SDS011;15493;56.858;24.340;2023-07-29T10:08:35;3.25;;;1.90;;
28216;SDS011;15493;56.858;24.340;2023-07-29T10:11:08;1.58;;;1.48;;
28216;SDS011;15493;56.858;24.340;2023-07-29T10:13:35;1.48;;;1.38;;
28216;SDS011;15493;56.858;24.340;2023-07-29T10:16:03;1.67;;;1.58;;
28216;SDS011;15493;56.858;24.340;2023-07-29T10:18:32;2.60;;;1.80;;
28216;SDS011;15493;56.858;24.340;2023-07-29T10:21:00;1.85;;;1.48;;
28216;SDS011;15493;56.858;24.340;2023-07-29T10:23:28;1.58;;;1.48;;
28216;SDS011;15493;56.858;24.340;2023-07-29T10:26:02;2.30;;;1.50;;
28216;SDS011;15493;56.858;24.340;2023-07-29T10:28:30;1.50;;;1.40;;
28216;SDS011;15493;56.858;24.340;2023-07-29T10:30:58;2.17;;;1.60;;
28216;SDS011;15493;56.858;24.340;2023-07-29T10:33:26;2.15;;;1.40;;
28216;SDS011;15493;56.858;24.340;2023-07-29T10:35:53;2.83;;;1.73;;
28216;SDS011;15493;56.858;24.340;2023-07-29T10:38:21;1.33;;;1.10;;
28216;SDS011;15493;56.858;24.340;2023-07-29T10:40:53;0.70;;;0.70;;
28216;SDS011;15493;56.858;24.340;2023-07-29T10:43:33;2.38;;;0.90;;
28216;SDS011;15493;56.858;24.340;2023-07-29T10:46:22;2.53;;;0.73;;
28216;SDS011;15493;56.858;24.340;2023-07-29T13:40:44;1.00;;;0.90;;
28216;SDS011;15493;56.858;24.340;2023-07-29T13:43:11;2.10;;;1.20;;
28216;SDS011;15493;56.858;24.340;2023-07-29T14:00:21;0.80;;;0.80;;
28216;SDS011;15493;56.858;24.340;2023-07-29T14:02:48;3.78;;;0.95;;
28216;SDS011;15493;56.858;24.340;2023-07-29T14:05:16;0.90;;;0.90;;
28216;SDS011;15493;56.858;24.340;2023-07-29T14:47:01;2.20;;;0.77;;
28216;SDS011;15493;56.858;24.340;2023-07-29T14:49:28;1.30;;;1.17;;
28216;SDS011;15493;56.858;24.340;2023-07-29T14:51:55;1.70;;;0.60;;
28216;SDS011;15493;56.858;24.340;2023-07-29T14:54:23;0.90;;;0.90;;
28216;SDS011;15493;56.858;24.340;2023-07-29T14:56:50;1.05;;;0.80;;
28216;SDS011;15493;56.858;24.340;2023-07-29T14:59:17;0.70;;;0.70;;
28216;SDS011;15493;56.858;24.340;2023-07-29T15:01:44;1.77;;;1.08;;
28216;SDS011;15493;56.858;24.340;2023-07-29T15:04:11;1.20;;;1.02;;
28216;SDS011;15493;56.858;24.340;2023-07-29T15:06:38;1.58;;;1.40;;
28216;SDS011;15493;56.858;24.340;2023-07-29T15:09:06;1.30;;;1.10;;
28216;SDS011;15493;56.858;24.340;2023-07-29T15:11:33;1.20;;;1.20;;
28216;SDS011;15493;56.858;24.340;2023-07-29T15:14:00;2.00;;;1.40;;
28216;SDS011;15493;56.858;24.340;2023-07-29T15:16:29;1.40;;;1.30;;
28216;SDS011;15493;56.858;24.340;2023-07-29T15:18:57;2.22;;;1.63;;
28216;SDS011;15493;56.858;24.340;2023-07-29T15:21:24;4.18;;;1.00;;
28216;SDS011;15493;56.858;24.340;2023-07-29T15:23:52;0.85;;;0.82;;
28216;SDS011;15493;56.858;24.340;2023-07-29T15:26:19;1.00;;;0.90;;
28216;SDS011;15493;56.858;24.340;2023-07-29T15:28:46;1.58;;;1.48;;
28216;SDS011;15493;56.858;24.340;2023-07-29T15:31:13;1.58;;;1.10;;
28216;SDS011;15493;56.858;24.340;2023-07-29T15:33:41;1.95;;;1.52;;
28216;SDS011;15493;56.858;24.340;2023-07-29T15:36:08;1.83;;;1.38;;
28216;SDS011;15493;56.858;24.340;2023-07-29T15:38:35;2.78;;;1.52;;
28216;SDS011;15493;56.858;24.340;2023-07-29T15:41:03;1.25;;;1.00;;
28216;SDS011;15493;56.858;24.340;2023-07-29T15:43:30;1.48;;;1.38;;
28216;SDS011;15493;56.858;24.340;2023-07-29T15:45:57;2.53;;;1.88;;
28216;SDS011;15493;56.858;24.340;2023-07-29T15:48:24;2.70;;;1.90;;
28216;SDS011;15493;56.858;24.340;2023-07-29T15:50:52;1.85;;;1.27;;
28216;SDS011;15493;56.858;24.340;2023-07-29T15:53:19;5.63;;;1.10;;
28216;SDS011;15493;56.858;24.340;2023-07-29T15:55:46;2.72;;;1.23;;
28216;SDS011;15493;56.858;24.340;2023-07-29T15:58:13;2.22;;;1.90;;
28216;SDS011;15493;56.858;24.340;2023-07-29T16:00:41;1.55;;;1.45;;
28216;SDS011;15493;56.858;24.340;2023-07-29T16:03:08;2.53;;;1.33;;
28216;SDS011;15493;56.858;24.340;2023-07-29T16:05:35;2.63;;;1.55;;
28216;SDS011;15493;56.858;24.340;2023-07-29T16:08:02;3.10;;;1.30;;
28216;SDS011;15493;56.858;24.340;2023-07-29T16:10:29;0.90;;;0.90;;
28216;SDS011;15493;56.858;24.340;2023-07-29T16:12:57;1.42;;;1.08;;
28216;SDS011;15493;56.858;24.340;2023-07-29T16:15:24;2.42;;;1.42;;
28216;SDS011;15493;56.858;24.340;2023-07-29T16:17:51;2.00;;;1.27;;
28216;SDS011;15493;56.858;24.340;2023-07-29T16:20:20;2.30;;;0.98;;
28216;SDS011;15493;56.858;24.340;2023-07-29T16:22:48;1.60;;;0.90;;
28216;SDS011;15493;56.858;24.340;2023-07-29T16:25:15;2.58;;;0.90;;
28216;SDS011;15493;56.858;24.340;2023-07-29T16:27:42;3.80;;;1.20;;
28216;SDS011;15493;56.858;24.340;2023-07-29T16:30:09;3.80;;;1.52;;
28216;SDS011;15493;56.858;24.340;2023-07-29T16:32:36;2.90;;;1.63;;
28216;SDS011;15493;56.858;24.340;2023-07-29T16:35:04;3.85;;;1.10;;
28216;SDS011;15493;56.858;24.340;2023-07-29T16:37:31;2.58;;;1.05;;
28216;SDS011;15493;56.858;24.340;2023-07-29T16:39:58;2.13;;;1.38;;
28216;SDS011;15493;56.858;24.340;2023-07-29T16:42:25;1.20;;;1.00;;
28216;SDS011;15493;56.858;24.340;2023-07-29T16:44:53;1.75;;;1.13;;
28216;SDS011;15493;56.858;24.340;2023-07-29T16:47:20;2.28;;;1.30;;
28216;SDS011;15493;56.858;24.340;2023-07-29T16:49:48;3.28;;;1.60;;
28216;SDS011;15493;56.858;24.340;2023-07-29T16:52:15;4.22;;;1.55;;
28216;SDS011;15493;56.858;24.340;2023-07-29T16:54:42;4.45;;;1.27;;
28216;SDS011;15493;56.858;24.340;2023-07-29T16:57:09;3.65;;;1.15;;
28216;SDS011;15493;56.858;24.340;2023-07-29T16:59:37;4.72;;;0.93;;
28216;SDS011;15493;56.858;24.340;2023-07-29T17:02:04;2.72;;;1.10;;
28216;SDS011;15493;56.858;24.340;2023-07-29T17:04:33;1.20;;;1.00;;
28216;SDS011;15493;56.858;24.340;2023-07-29T17:07:01;1.30;;;1.02;;
28216;SDS011;15493;56.858;24.340;2023-07-29T17:09:28;1.30;;;1.10;;
28216;SDS011;15493;56.858;24.340;2023-07-29T17:11:55;4.47;;;1.35;;
28216;SDS011;15493;56.858;24.340;2023-07-29T17:14:25;2.08;;;1.65;;
28216;SDS011;15493;56.858;24.340;2023-07-29T17:16:54;4.78;;;1.70;;
28216;SDS011;15493;56.858;24.340;2023-07-29T17:19:21;2.25;;;1.00;;
28216;SDS011;15493;56.858;24.340;2023-07-29T17:22:09;1.23;;;1.13;;
28216;SDS011;15493;56.858;24.340;2023-07-29T17:24:36;2.78;;;1.10;;
28216;SDS011;15493;56.858;24.340;2023-07-29T17:27:24;1.95;;;1.00;;
28216;SDS011;15493;56.858;24.340;2023-07-29T17:29:51;0.75;;;0.70;;
28216;SDS011;15493;56.858;24.340;2023-07-29T17:32:18;1.05;;;0.82;;
28216;SDS011;15493;56.858;24.340;2023-07-29T17:34:45;0.80;;;0.80;;
28216;SDS011;15493;56.858;24.340;2023-07-29T17:37:34;1.67;;;0.82;;
28216;SDS011;15493;56.858;24.340;2023-07-29T17:40:01;0.70;;;0.70;;
28216;SDS011;15493;56.858;24.340;2023-07-29T17:42:28;4.80;;;0.90;;
28216;SDS011;15493;56.858;24.340;2023-07-29T17:44:56;3.15;;;0.80;;
28216;SDS011;15493;56.858;24.340;2023-07-29T17:47:45;3.78;;;0.70;;
28216;SDS011;15493;56.858;24.340;2023-07-29T17:50:13;3.58;;;0.88;;
28216;SDS011;15493;56.858;24.340;2023-07-29T17:52:40;1.63;;;0.98;;
28216;SDS011;15493;56.858;24.340;2023-07-29T17:55:16;4.13;;;1.20;;
28216;SDS011;15493;56.858;24.340;2023-07-29T17:57:43;8.43;;;1.75;;
28216;SDS011;15493;56.858;24.340;2023-07-29T18:00:10;2.83;;;1.20;;
28216;SDS011;15493;56.858;24.340;2023-07-29T18:02:58;5.85;;;1.33;;
28216;SDS011;15493;56.858;24.340;2023-07-29T18:05:26;1.85;;;1.23;;
28216;SDS011;15493;56.858;24.340;2023-07-29T18:08:14;3.30;;;1.75;;
28216;SDS011;15493;56.858;24.340;2023-07-29T18:10:55;2.90;;;2.38;;
28216;SDS011;15493;56.858;24.340;2023-07-29T18:13:43;8.45;;;1.48;;
28216;SDS011;15493;56.858;24.340;2023-07-29T18:16:32;5.03;;;2.83;;
28216;SDS011;15493;56.858;24.340;2023-07-29T18:19:21;3.38;;;2.78;;
28216;SDS011;15493;56.858;24.340;2023-07-29T18:21:50;5.40;;;4.05;;
28216;SDS011;15493;56.858;24.340;2023-07-29T18:24:18;6.35;;;5.05;;
28216;SDS011;15493;56.858;24.340;2023-07-29T18:27:06;17.40;;;8.23;;
28216;SDS011;15493;56.858;24.340;2023-07-29T18:29:34;11.95;;;6.82;;
28216;SDS011;15493;56.858;24.340;2023-07-29T18:32:22;65.68;;;25.00;;
28216;SDS011;15493;56.858;24.340;2023-07-29T18:35:16;56.92;;;26.58;;
28216;SDS011;15493;56.858;24.340;2023-07-29T18:38:12;23.02;;;11.05;;
28216;SDS011;15493;56.858;24.340;2023-07-29T18:41:02;48.97;;;19.33;;
28216;SDS011;15493;56.858;24.340;2023-07-29T18:43:38;46.97;;;20.35;;
28216;SDS011;15493;56.858;24.340;2023-07-29T18:46:31;82.38;;;32.67;;
28216;SDS011;15493;56.858;24.340;2023-07-29T18:49:12;93.65;;;38.55;;
28216;SDS011;15493;56.858;24.340;2023-07-29T18:51:40;107.55;;;42.70;;
28216;SDS011;15493;56.858;24.340;2023-07-29T19:05:07;35.13;;;16.00;;
28216;SDS011;15493;56.858;24.340;2023-07-29T19:08:00;38.35;;;13.32;;
28216;SDS011;15493;56.858;24.340;2023-07-29T19:10:48;11.57;;;6.07;;
28216;SDS011;15493;56.858;24.340;2023-07-29T19:13:15;11.98;;;6.05;;
28216;SDS011;15493;56.858;24.340;2023-07-29T19:15:49;8.27;;;3.60;;
28216;SDS011;15493;56.858;24.340;2023-07-29T19:18:40;18.58;;;6.28;;
28216;SDS011;15493;56.858;24.340;2023-07-29T19:21:15;8.18;;;5.00;;
28216;SDS011;15493;56.858;24.340;2023-07-29T19:24:05;19.35;;;8.43;;
28216;SDS011;15493;56.858;24.340;2023-07-29T19:26:47;17.75;;;6.57;;
28216;SDS011;15493;56.858;24.340;2023-07-29T19:29:35;21.73;;;11.90;;
28216;SDS011;15493;56.858;24.340;2023-07-29T19:32:16;15.00;;;8.35;;
28216;SDS011;15493;56.858;24.340;2023-07-29T19:35:05;29.40;;;12.80;;
28216;SDS011;15493;56.858;24.340;2023-07-29T19:37:47;11.38;;;5.95;;
28216;SDS011;15493;56.858;24.340;2023-07-29T19:40:28;10.70;;;5.50;;
28216;SDS011;15493;56.858;24.340;2023-07-29T19:42:55;9.23;;;5.28;;
28216;SDS011;15493;56.858;24.340;2023-07-29T19:45:23;8.82;;;5.32;;
28216;SDS011;15493;56.858;24.340;2023-07-29T19:47:50;18.88;;;8.00;;
28216;SDS011;15493;56.858;24.340;2023-07-29T19:50:17;22.00;;;11.82;;
28216;SDS011;15493;56.858;24.340;2023-07-29T19:52:44;12.73;;;8.73;;
28216;SDS011;15493;56.858;24.340;2023-07-29T19:55:12;18.13;;;8.95;;
28216;SDS011;15493;56.858;24.340;2023-07-29T19:57:39;17.88;;;8.65;;
28216;SDS011;15493;56.858;24.340;2023-07-29T20:00:06;28.20;;;9.93;;
28216;SDS011;15493;56.858;24.340;2023-07-29T20:02:33;8.57;;;5.82;;
